sensor_id;sensor_type;location;lat;lon;timestamp;P1;durP1;ratioP1;P2;durP2;ratioP2
4001;SDS011;2015;48.670;9.060;2023-04-03T00:02:16;6.03;;;5.60;;
4001;SDS011;2015;48.670;9.060;2023-04-03T00:04:48;5.67;;;5.27;;
4001;SDS011;2015;48.670;9.060;2023-04-03T00:07:20;5.50;;;5.20;;
4001;SDS011;2015;48.670;9.060;2023-04-03T00:09:52;5.90;;;5.50;;
4001;SDS011;2015;48.670;9.060;2023-04-03T00:12:24;5.70;;;5.17;;
4001;SDS011;2015;48.670;9.060;2023-04-03T00:14:56;5.50;;;5.10;;
4001;SDS011;2015;48.670;9.060;2023-04-03T00:17:27;5.40;;;5.00;;
4001;SDS011;2015;48.670;9.060;2023-04-03T00:19:59;6.03;;;5.43;;
4001;SDS011;2015;48.670;9.060;2023-04-03T00:22:45;5.73;;;5.30;;
4001;SDS011;2015;48.670;9.060;2023-04-03T00:25:17;6.03;;;5.53;;
4001;SDS011;2015;48.670;9.060;2023-04-03T00:27:49;6.40;;;5.80;;
4001;SDS011;2015;48.670;9.060;2023-04-03T00:30:21;10.37;;;5.90;;
4001;SDS011;2015;48.670;9.060;2023-04-03T00:32:53;5.70;;;5.20;;
4001;SDS011;2015;48.670;9.060;2023-04-03T00:35:25;6.93;;;6.37;;
4001;SDS011;2015;48.670;9.060;2023-04-03T00:37:57;5.77;;;5.27;;
4001;SDS011;2015;48.670;9.060;2023-04-03T00:40:33;5.73;;;5.33;;
4001;SDS011;2015;48.670;9.060;2023-04-03T00:43:11;9.50;;;5.70;;
4001;SDS011;2015;48.670;9.060;2023-04-03T00:45:49;6.10;;;5.63;;
4001;SDS011;2015;48.670;9.060;2023-04-03T00:48:30;6.90;;;6.33;;
4001;SDS011;2015;48.670;9.060;2023-04-03T00:51:05;5.87;;;5.37;;
4001;SDS011;2015;48.670;9.060;2023-04-03T00:53:43;6.87;;;5.67;;
4001;SDS011;2015;48.670;9.060;2023-04-03T00:56:32;5.50;;;5.00;;
4001;SDS011;2015;48.670;9.060;2023-04-03T01:01:39;8.00;;;5.80;;
4001;SDS011;2015;48.670;9.060;2023-04-03T01:04:26;5.90;;;5.30;;
4001;SDS011;2015;48.670;9.060;2023-04-03T01:07:04;6.00;;;5.60;;
4001;SDS011;2015;48.670;9.060;2023-04-03T01:09:38;8.33;;;5.23;;
4001;SDS011;2015;48.670;9.060;2023-04-03T01:14:49;6.53;;;5.93;;
4001;SDS011;2015;48.670;9.060;2023-04-03T01:17:45;6.70;;;6.30;;
4001;SDS011;2015;48.670;9.060;2023-04-03T01:28:14;5.77;;;5.37;;
4001;SDS011;2015;48.670;9.060;2023-04-03T01:30:55;5.80;;;5.30;;
4001;SDS011;2015;48.670;9.060;2023-04-03T01:33:44;5.70;;;5.20;;
4001;SDS011;2015;48.670;9.060;2023-04-03T01:36:39;5.90;;;5.27;;
4001;SDS011;2015;48.670;9.060;2023-04-03T01:39:07;5.60;;;5.20;;
4001;SDS011;2015;48.670;9.060;2023-04-03T01:41:39;6.40;;;5.80;;
4001;SDS011;2015;48.670;9.060;2023-04-03T01:44:11;6.30;;;5.57;;
4001;SDS011;2015;48.670;9.060;2023-04-03T01:46:43;4.80;;;4.50;;
4001;SDS011;2015;48.670;9.060;2023-04-03T01:49:15;6.18;;;5.50;;
4001;SDS011;2015;48.670;9.060;2023-04-03T01:51:46;5.57;;;5.07;;
4001;SDS011;2015;48.670;9.060;2023-04-03T01:54:18;6.63;;;5.50;;
4001;SDS011;2015;48.670;9.060;2023-04-03T01:56:50;5.17;;;4.77;;
4001;SDS011;2015;48.670;9.060;2023-04-03T01:59:22;5.70;;;5.30;;
4001;SDS011;2015;48.670;9.060;2023-04-03T02:01:54;5.63;;;5.20;;
4001;SDS011;2015;48.670;9.060;2023-04-03T02:04:26;7.07;;;6.57;;
4001;SDS011;2015;48.670;9.060;2023-04-03T02:06:58;5.70;;;4.90;;
4001;SDS011;2015;48.670;9.060;2023-04-03T02:09:30;5.70;;;5.30;;
4001;SDS011;2015;48.670;9.060;2023-04-03T02:12:02;5.40;;;4.93;;
4001;SDS011;2015;48.670;9.060;2023-04-03T02:14:33;7.83;;;5.27;;
4001;SDS011;2015;48.670;9.060;2023-04-03T02:17:05;5.33;;;4.87;;
4001;SDS011;2015;48.670;9.060;2023-04-03T02:19:39;7.13;;;5.50;;
4001;SDS011;2015;48.670;9.060;2023-04-03T02:22:11;5.80;;;5.30;;
4001;SDS011;2015;48.670;9.060;2023-04-03T02:24:43;5.67;;;5.27;;
4001;SDS011;2015;48.670;9.060;2023-04-03T02:27:15;7.47;;;5.93;;
4001;SDS011;2015;48.670;9.060;2023-04-03T02:29:47;6.77;;;6.37;;
4001;SDS011;2015;48.670;9.060;2023-04-03T02:32:18;5.70;;;5.30;;
4001;SDS011;2015;48.670;9.060;2023-04-03T02:34:50;8.03;;;6.10;;
4001;SDS011;2015;48.670;9.060;2023-04-03T02:37:22;5.80;;;5.40;;
4001;SDS011;2015;48.670;9.060;2023-04-03T02:39:54;5.37;;;5.07;;
4001;SDS011;2015;48.670;9.060;2023-04-03T02:42:26;6.13;;;5.63;;
4001;SDS011;2015;48.670;9.060;2023-04-03T02:44:57;5.80;;;5.40;;
4001;SDS011;2015;48.670;9.060;2023-04-03T02:47:31;6.37;;;5.77;;
4001;SDS011;2015;48.670;9.060;2023-04-03T02:50:03;5.50;;;5.10;;
4001;SDS011;2015;48.670;9.060;2023-04-03T02:52:35;4.90;;;4.50;;
4001;SDS011;2015;48.670;9.060;2023-04-03T02:55:07;5.10;;;4.60;;
4001;SDS011;2015;48.670;9.060;2023-04-03T02:57:39;7.60;;;6.47;;
4001;SDS011;2015;48.670;9.060;2023-04-03T03:00:11;6.10;;;5.60;;
4001;SDS011;2015;48.670;9.060;2023-04-03T03:02:43;6.10;;;5.50;;
4001;SDS011;2015;48.670;9.060;2023-04-03T03:05:15;5.73;;;5.27;;
4001;SDS011;2015;48.670;9.060;2023-04-03T03:07:47;5.53;;;5.10;;
4001;SDS011;2015;48.670;9.060;2023-04-03T03:10:19;5.57;;;5.20;;
4001;SDS011;2015;48.670;9.060;2023-04-03T03:12:51;5.87;;;5.40;;
4001;SDS011;2015;48.670;9.060;2023-04-03T03:15:22;5.40;;;5.00;;
4001;SDS011;2015;48.670;9.060;2023-04-03T03:17:54;5.03;;;4.73;;
4001;SDS011;2015;48.670;9.060;2023-04-03T03:20:26;7.40;;;5.57;;
4001;SDS011;2015;48.670;9.060;2023-04-03T03:22:58;5.70;;;5.20;;
4001;SDS011;2015;48.670;9.060;2023-04-03T03:25:30;5.93;;;5.27;;
4001;SDS011;2015;48.670;9.060;2023-04-03T03:28:01;7.03;;;5.60;;
4001;SDS011;2015;48.670;9.060;2023-04-03T03:30:33;6.13;;;5.63;;
4001;SDS011;2015;48.670;9.060;2023-04-03T03:33:06;4.90;;;4.50;;
4001;SDS011;2015;48.670;9.060;2023-04-03T03:35:38;6.27;;;5.40;;
4001;SDS011;2015;48.670;9.060;2023-04-03T03:38:10;5.30;;;4.90;;
4001;SDS011;2015;48.670;9.060;2023-04-03T03:40:42;5.50;;;5.10;;
4001;SDS011;2015;48.670;9.060;2023-04-03T03:43:14;6.23;;;5.63;;
4001;SDS011;2015;48.670;9.060;2023-04-03T03:45:49;6.57;;;4.80;;
4001;SDS011;2015;48.670;9.060;2023-04-03T03:48:22;6.17;;;5.57;;
4001;SDS011;2015;48.670;9.060;2023-04-03T03:50:54;5.80;;;5.40;;
4001;SDS011;2015;48.670;9.060;2023-04-03T03:53:26;5.80;;;5.37;;
4001;SDS011;2015;48.670;9.060;2023-04-03T03:55:58;5.97;;;5.33;;
4001;SDS011;2015;48.670;9.060;2023-04-03T03:58:29;6.30;;;5.70;;
4001;SDS011;2015;48.670;9.060;2023-04-03T04:01:02;5.83;;;5.37;;
4001;SDS011;2015;48.670;9.060;2023-04-03T04:03:36;6.97;;;5.10;;
4001;SDS011;2015;48.670;9.060;2023-04-03T04:06:08;6.13;;;5.63;;
4001;SDS011;2015;48.670;9.060;2023-04-03T04:08:40;5.20;;;4.80;;
4001;SDS011;2015;48.670;9.060;2023-04-03T04:11:12;5.77;;;5.30;;
4001;SDS011;2015;48.670;9.060;2023-04-03T04:13:44;5.63;;;5.13;;
4001;SDS011;2015;48.670;9.060;2023-04-03T04:16:15;5.13;;;4.83;;
4001;SDS011;2015;48.670;9.060;2023-04-03T04:18:47;5.87;;;5.40;;
4001;SDS011;2015;48.670;9.060;2023-04-03T04:21:19;7.60;;;6.63;;
4001;SDS011;2015;48.670;9.060;2023-04-03T04:23:51;5.43;;;4.97;;
4001;SDS011;2015;48.670;9.060;2023-04-03T04:26:23;6.50;;;5.90;;
4001;SDS011;2015;48.670;9.060;2023-04-03T04:28:55;6.23;;;5.63;;
4001;SDS011;2015;48.670;9.060;2023-04-03T04:31:27;5.30;;;4.90;;
4001;SDS011;2015;48.670;9.060;2023-04-03T04:33:59;5.77;;;5.37;;
4001;SDS011;2015;48.670;9.060;2023-04-03T04:36:31;6.13;;;5.72;;
4001;SDS011;2015;48.670;9.060;2023-04-03T04:39:03;5.50;;;5.10;;
4001;SDS011;2015;48.670;9.060;2023-04-03T04:41:34;6.93;;;5.67;;
4001;SDS011;2015;48.670;9.060;2023-04-03T04:44:06;5.97;;;5.53;;
4001;SDS011;2015;48.670;9.060;2023-04-03T04:46:38;5.23;;;4.73;;
4001;SDS011;2015;48.670;9.060;2023-04-03T04:49:10;6.40;;;5.80;;
4001;SDS011;2015;48.670;9.060;2023-04-03T04:51:42;6.03;;;5.53;;
4001;SDS011;2015;48.670;9.060;2023-04-03T04:54:22;6.10;;;5.67;;
4001;SDS011;2015;48.670;9.060;2023-04-03T04:56:54;5.97;;;5.40;;
4001;SDS011;2015;48.670;9.060;2023-04-03T04:59:26;5.93;;;5.47;;
4001;SDS011;2015;48.670;9.060;2023-04-03T05:01:58;8.50;;;6.17;;
4001;SDS011;2015;48.670;9.060;2023-04-03T05:04:29;4.87;;;4.57;;
4001;SDS011;2015;48.670;9.060;2023-04-03T05:07:02;5.33;;;4.93;;
4001;SDS011;2015;48.670;9.060;2023-04-03T05:09:33;5.23;;;4.93;;
4001;SDS011;2015;48.670;9.060;2023-04-03T05:12:05;5.33;;;5.03;;
4001;SDS011;2015;48.670;9.060;2023-04-03T05:14:37;5.20;;;4.80;;
4001;SDS011;2015;48.670;9.060;2023-04-03T05:17:09;5.37;;;4.73;;
4001;SDS011;2015;48.670;9.060;2023-04-03T05:19:40;4.77;;;4.47;;
4001;SDS011;2015;48.670;9.060;2023-04-03T05:22:12;5.30;;;4.43;;
4001;SDS011;2015;48.670;9.060;2023-04-03T05:24:44;5.03;;;4.63;;
4001;SDS011;2015;48.670;9.060;2023-04-03T05:27:16;4.13;;;3.93;;
4001;SDS011;2015;48.670;9.060;2023-04-03T05:29:48;5.07;;;4.67;;
4001;SDS011;2015;48.670;9.060;2023-04-03T05:32:19;4.60;;;4.30;;
4001;SDS011;2015;48.670;9.060;2023-04-03T05:34:51;5.73;;;4.57;;
4001;SDS011;2015;48.670;9.060;2023-04-03T05:37:23;5.43;;;3.97;;
4001;SDS011;2015;48.670;9.060;2023-04-03T05:39:55;4.00;;;3.70;;
4001;SDS011;2015;48.670;9.060;2023-04-03T05:42:27;3.80;;;3.60;;
4001;SDS011;2015;48.670;9.060;2023-04-03T05:44:59;4.83;;;4.50;;
4001;SDS011;2015;48.670;9.060;2023-04-03T05:47:31;4.30;;;4.00;;
4001;SDS011;2015;48.670;9.060;2023-04-03T05:50:03;4.20;;;3.90;;
4001;SDS011;2015;48.670;9.060;2023-04-03T05:52:37;4.50;;;4.10;;
4001;SDS011;2015;48.670;9.060;2023-04-03T05:55:11;5.67;;;5.27;;
4001;SDS011;2015;48.670;9.060;2023-04-03T05:57:43;3.80;;;3.60;;
4001;SDS011;2015;48.670;9.060;2023-04-03T06:00:15;4.23;;;3.93;;
4001;SDS011;2015;48.670;9.060;2023-04-03T06:02:47;4.60;;;4.10;;
4001;SDS011;2015;48.670;9.060;2023-04-03T06:05:19;4.40;;;4.00;;
4001;SDS011;2015;48.670;9.060;2023-04-03T06:07:50;4.90;;;4.60;;
4001;SDS011;2015;48.670;9.060;2023-04-03T06:10:22;6.83;;;3.90;;
4001;SDS011;2015;48.670;9.060;2023-04-03T06:12:54;4.90;;;4.50;;
4001;SDS011;2015;48.670;9.060;2023-04-03T06:15:26;5.17;;;4.77;;
4001;SDS011;2015;48.670;9.060;2023-04-03T06:25:42;4.73;;;4.40;;
4001;SDS011;2015;48.670;9.060;2023-04-03T06:28:14;4.97;;;4.67;;
4001;SDS011;2015;48.670;9.060;2023-04-03T06:30:45;6.57;;;4.90;;
4001;SDS011;2015;48.670;9.060;2023-04-03T06:33:17;5.60;;;5.10;;
4001;SDS011;2015;48.670;9.060;2023-04-03T06:35:49;5.03;;;4.60;;
4001;SDS011;2015;48.670;9.060;2023-04-03T06:38:26;5.30;;;4.90;;
4001;SDS011;2015;48.670;9.060;2023-04-03T06:40:58;5.77;;;5.20;;
4001;SDS011;2015;48.670;9.060;2023-04-03T06:43:31;5.67;;;5.30;;
4001;SDS011;2015;48.670;9.060;2023-04-03T06:46:05;6.30;;;4.73;;
4001;SDS011;2015;48.670;9.060;2023-04-03T06:48:37;5.47;;;5.17;;
4001;SDS011;2015;48.670;9.060;2023-04-03T06:51:20;8.23;;;5.10;;
4001;SDS011;2015;48.670;9.060;2023-04-03T06:53:59;13.30;;;5.70;;
4001;SDS011;2015;48.670;9.060;2023-04-03T06:56:31;4.47;;;4.17;;
4001;SDS011;2015;48.670;9.060;2023-04-03T06:59:03;4.83;;;4.43;;
4001;SDS011;2015;48.670;9.060;2023-04-03T07:01:35;4.60;;;4.30;;
4001;SDS011;2015;48.670;9.060;2023-04-03T07:04:07;5.07;;;4.67;;
4001;SDS011;2015;48.670;9.060;2023-04-03T07:06:39;4.33;;;4.13;;
4001;SDS011;2015;48.670;9.060;2023-04-03T07:09:13;4.13;;;3.73;;
4001;SDS011;2015;48.670;9.060;2023-04-03T07:11:45;4.30;;;4.00;;
4001;SDS011;2015;48.670;9.060;2023-04-03T07:14:17;5.07;;;4.70;;
4001;SDS011;2015;48.670;9.060;2023-04-03T07:16:49;7.03;;;4.30;;
4001;SDS011;2015;48.670;9.060;2023-04-03T07:19:21;5.00;;;4.70;;
4001;SDS011;2015;48.670;9.060;2023-04-03T07:21:53;4.70;;;4.40;;
4001;SDS011;2015;48.670;9.060;2023-04-03T07:24:26;4.07;;;3.83;;
4001;SDS011;2015;48.670;9.060;2023-04-03T07:26:58;4.80;;;4.37;;
4001;SDS011;2015;48.670;9.060;2023-04-03T07:29:29;4.83;;;4.53;;
4001;SDS011;2015;48.670;9.060;2023-04-03T07:32:01;8.20;;;4.83;;
4001;SDS011;2015;48.670;9.060;2023-04-03T07:34:34;4.88;;;4.28;;
4001;SDS011;2015;48.670;9.060;2023-04-03T07:37:06;4.93;;;4.50;;
4001;SDS011;2015;48.670;9.060;2023-04-03T07:39:38;4.00;;;3.80;;
4001;SDS011;2015;48.670;9.060;2023-04-03T07:42:10;4.60;;;4.30;;
4001;SDS011;2015;48.670;9.060;2023-04-03T07:44:43;4.50;;;4.20;;
4001;SDS011;2015;48.670;9.060;2023-04-03T07:47:15;4.90;;;4.60;;
4001;SDS011;2015;48.670;9.060;2023-04-03T07:49:48;5.30;;;5.00;;
4001;SDS011;2015;48.670;9.060;2023-04-03T07:52:20;5.17;;;4.67;;
4001;SDS011;2015;48.670;9.060;2023-04-03T07:54:52;4.97;;;4.60;;
4001;SDS011;2015;48.670;9.060;2023-04-03T07:57:24;5.37;;;4.50;;
4001;SDS011;2015;48.670;9.060;2023-04-03T07:59:56;4.37;;;3.97;;
4001;SDS011;2015;48.670;9.060;2023-04-03T08:02:27;5.67;;;5.10;;
4001;SDS011;2015;48.670;9.060;2023-04-03T08:05:00;4.43;;;4.23;;
4001;SDS011;2015;48.670;9.060;2023-04-03T08:07:32;4.97;;;4.73;;
4001;SDS011;2015;48.670;9.060;2023-04-03T08:10:03;7.00;;;4.50;;
4001;SDS011;2015;48.670;9.060;2023-04-03T08:12:36;4.60;;;4.30;;
4001;SDS011;2015;48.670;9.060;2023-04-03T08:15:08;5.53;;;4.27;;
4001;SDS011;2015;48.670;9.060;2023-04-03T08:17:40;4.10;;;3.63;;
4001;SDS011;2015;48.670;9.060;2023-04-03T08:20:12;5.17;;;4.33;;
4001;SDS011;2015;48.670;9.060;2023-04-03T08:22:44;4.80;;;4.40;;
4001;SDS011;2015;48.670;9.060;2023-04-03T08:25:16;4.57;;;4.17;;
4001;SDS011;2015;48.670;9.060;2023-04-03T08:27:48;4.33;;;4.10;;
4001;SDS011;2015;48.670;9.060;2023-04-03T08:30:20;4.93;;;4.43;;
4001;SDS011;2015;48.670;9.060;2023-04-03T08:32:52;4.77;;;4.47;;
4001;SDS011;2015;48.670;9.060;2023-04-03T08:35:24;6.13;;;4.90;;
4001;SDS011;2015;48.670;9.060;2023-04-03T08:37:56;4.90;;;4.40;;
4001;SDS011;2015;48.670;9.060;2023-04-03T08:40:28;8.83;;;4.27;;
4001;SDS011;2015;48.670;9.060;2023-04-03T08:43:45;5.40;;;5.00;;
4001;SDS011;2015;48.670;9.060;2023-04-03T08:46:05;5.20;;;4.90;;
4001;SDS011;2015;48.670;9.060;2023-04-03T08:48:42;6.50;;;4.53;;
4001;SDS011;2015;48.670;9.060;2023-04-03T08:51:15;5.27;;;4.87;;
4001;SDS011;2015;48.670;9.060;2023-04-03T08:56:30;5.03;;;4.63;;
4001;SDS011;2015;48.670;9.060;2023-04-03T08:59:05;5.97;;;5.40;;
4001;SDS011;2015;48.670;9.060;2023-04-03T09:01:43;5.77;;;5.37;;
4001;SDS011;2015;48.670;9.060;2023-04-03T09:04:16;5.40;;;5.00;;
4001;SDS011;2015;48.670;9.060;2023-04-03T09:06:52;5.20;;;4.70;;
4001;SDS011;2015;48.670;9.060;2023-04-03T09:09:32;5.50;;;5.10;;
4001;SDS011;2015;48.670;9.060;2023-04-03T09:12:27;5.23;;;4.93;;
4001;SDS011;2015;48.670;9.060;2023-04-03T09:15:20;4.90;;;4.50;;
4001;SDS011;2015;48.670;9.060;2023-04-03T09:26:36;4.68;;;4.28;;
4001;SDS011;2015;48.670;9.060;2023-04-03T09:29:18;5.73;;;5.00;;
4001;SDS011;2015;48.670;9.060;2023-04-03T09:31:56;5.63;;;5.17;;
4001;SDS011;2015;48.670;9.060;2023-04-03T09:34:35;4.90;;;4.50;;
4001;SDS011;2015;48.670;9.060;2023-04-03T09:37:08;5.17;;;4.87;;
4001;SDS011;2015;48.670;9.060;2023-04-03T09:39:50;4.67;;;4.27;;
4001;SDS011;2015;48.670;9.060;2023-04-03T09:42:25;5.40;;;4.63;;
4001;SDS011;2015;48.670;9.060;2023-04-03T09:45:01;6.20;;;5.70;;
4001;SDS011;2015;48.670;9.060;2023-04-03T09:47:36;5.57;;;5.17;;
4001;SDS011;2015;48.670;9.060;2023-04-03T09:52:48;5.00;;;4.70;;
4001;SDS011;2015;48.670;9.060;2023-04-03T09:55:23;4.67;;;4.27;;
4001;SDS011;2015;48.670;9.060;2023-04-03T09:58:01;5.30;;;4.80;;
4001;SDS011;2015;48.670;9.060;2023-04-03T10:00:39;5.33;;;5.00;;
4001;SDS011;2015;48.670;9.060;2023-04-03T10:03:23;4.87;;;4.53;;
4001;SDS011;2015;48.670;9.060;2023-04-03T10:06:05;5.03;;;4.73;;
4001;SDS011;2015;48.670;9.060;2023-04-03T10:08:59;4.50;;;4.10;;
4001;SDS011;2015;48.670;9.060;2023-04-03T10:11:35;5.17;;;4.73;;
4001;SDS011;2015;48.670;9.060;2023-04-03T10:14:10;4.40;;;4.10;;
4001;SDS011;2015;48.670;9.060;2023-04-03T10:16:50;4.20;;;4.00;;
4001;SDS011;2015;48.670;9.060;2023-04-03T10:20:00;5.13;;;4.73;;
4001;SDS011;2015;48.670;9.060;2023-04-03T10:31:06;4.77;;;4.43;;
4001;SDS011;2015;48.670;9.060;2023-04-03T10:39:25;5.20;;;4.80;;
4001;SDS011;2015;48.670;9.060;2023-04-03T10:56:56;4.33;;;4.13;;
4001;SDS011;2015;48.670;9.060;2023-04-03T11:00:02;7.60;;;4.13;;
4001;SDS011;2015;48.670;9.060;2023-04-03T11:03:14;4.20;;;3.97;;
4001;SDS011;2015;48.670;9.060;2023-04-03T11:05:43;5.60;;;5.30;;
4001;SDS011;2015;48.670;9.060;2023-04-03T11:11:08;3.80;;;3.50;;
4001;SDS011;2015;48.670;9.060;2023-04-03T11:17:00;3.90;;;3.70;;
4001;SDS011;2015;48.670;9.060;2023-04-03T11:19:58;6.00;;;5.13;;
4001;SDS011;2015;48.670;9.060;2023-04-03T11:22:35;4.37;;;3.90;;
4001;SDS011;2015;48.670;9.060;2023-04-03T11:27:43;3.03;;;2.93;;
4001;SDS011;2015;48.670;9.060;2023-04-03T11:30:49;5.30;;;4.90;;
4001;SDS011;2015;48.670;9.060;2023-04-03T11:33:32;4.57;;;4.17;;
4001;SDS011;2015;48.670;9.060;2023-04-03T11:39:25;5.73;;;3.90;;
4001;SDS011;2015;48.670;9.060;2023-04-03T11:42:16;3.80;;;3.60;;
4001;SDS011;2015;48.670;9.060;2023-04-03T11:50:41;7.10;;;4.30;;
4001;SDS011;2015;48.670;9.060;2023-04-03T11:58:23;4.53;;;4.20;;
4001;SDS011;2015;48.670;9.060;2023-04-03T12:00:57;3.73;;;3.43;;
4001;SDS011;2015;48.670;9.060;2023-04-03T12:08:46;3.53;;;3.23;;
4001;SDS011;2015;48.670;9.060;2023-04-03T12:14:04;4.07;;;3.77;;
4001;SDS011;2015;48.670;9.060;2023-04-03T12:16:47;4.10;;;3.80;;
4001;SDS011;2015;48.670;9.060;2023-04-03T12:22:16;3.60;;;3.40;;
4001;SDS011;2015;48.670;9.060;2023-04-03T12:24:52;3.80;;;3.60;;
4001;SDS011;2015;48.670;9.060;2023-04-03T12:35:44;3.77;;;3.57;;
4001;SDS011;2015;48.670;9.060;2023-04-03T12:46:58;4.90;;;4.30;;
4001;SDS011;2015;48.670;9.060;2023-04-03T12:49:37;5.97;;;3.60;;
4001;SDS011;2015;48.670;9.060;2023-04-03T12:52:24;4.80;;;4.50;;
4001;SDS011;2015;48.670;9.060;2023-04-03T12:55:03;4.67;;;3.80;;
4001;SDS011;2015;48.670;9.060;2023-04-03T12:57:44;4.17;;;3.50;;
4001;SDS011;2015;48.670;9.060;2023-04-03T13:00:21;4.00;;;3.80;;
4001;SDS011;2015;48.670;9.060;2023-04-03T13:02:54;3.85;;;3.10;;
4001;SDS011;2015;48.670;9.060;2023-04-03T13:05:27;4.43;;;4.03;;
4001;SDS011;2015;48.670;9.060;2023-04-03T13:08:00;4.17;;;3.87;;
4001;SDS011;2015;48.670;9.060;2023-04-03T13:10:43;6.20;;;3.57;;
4001;SDS011;2015;48.670;9.060;2023-04-03T13:16:31;4.27;;;3.90;;
4001;SDS011;2015;48.670;9.060;2023-04-03T13:19:05;3.93;;;3.60;;
4001;SDS011;2015;48.670;9.060;2023-04-03T13:21:36;6.37;;;3.73;;
4001;SDS011;2015;48.670;9.060;2023-04-03T13:24:08;3.60;;;3.40;;
4001;SDS011;2015;48.670;9.060;2023-04-03T13:26:45;4.10;;;3.73;;
4001;SDS011;2015;48.670;9.060;2023-04-03T13:29:22;3.40;;;3.13;;
4001;SDS011;2015;48.670;9.060;2023-04-03T13:32:03;4.13;;;3.83;;
4001;SDS011;2015;48.670;9.060;2023-04-03T13:34:45;3.70;;;3.40;;
4001;SDS011;2015;48.670;9.060;2023-04-03T13:37:22;3.53;;;3.23;;
4001;SDS011;2015;48.670;9.060;2023-04-03T13:42:40;11.70;;;4.07;;
4001;SDS011;2015;48.670;9.060;2023-04-03T13:45:23;4.07;;;3.77;;
4001;SDS011;2015;48.670;9.060;2023-04-03T13:48:16;4.20;;;3.90;;
4001;SDS011;2015;48.670;9.060;2023-04-03T13:50:57;4.93;;;4.10;;
4001;SDS011;2015;48.670;9.060;2023-04-03T13:53:40;4.77;;;4.37;;
4001;SDS011;2015;48.670;9.060;2023-04-03T13:56:19;7.87;;;3.93;;
4001;SDS011;2015;48.670;9.060;2023-04-03T14:07:17;3.97;;;3.30;;
4001;SDS011;2015;48.670;9.060;2023-04-03T14:09:51;3.90;;;3.60;;
4001;SDS011;2015;48.670;9.060;2023-04-03T14:15:06;4.00;;;3.60;;
4001;SDS011;2015;48.670;9.060;2023-04-03T14:17:47;3.30;;;3.10;;
4001;SDS011;2015;48.670;9.060;2023-04-03T14:20:21;3.70;;;3.40;;
4001;SDS011;2015;48.670;9.060;2023-04-03T14:22:55;3.77;;;3.57;;
4001;SDS011;2015;48.670;9.060;2023-04-03T14:25:27;3.80;;;3.13;;
4001;SDS011;2015;48.670;9.060;2023-04-03T14:27:59;4.03;;;3.83;;
4001;SDS011;2015;48.670;9.060;2023-04-03T14:30:32;9.37;;;3.80;;
4001;SDS011;2015;48.670;9.060;2023-04-03T14:33:05;3.87;;;3.60;;
4001;SDS011;2015;48.670;9.060;2023-04-03T14:35:38;3.80;;;3.53;;
4001;SDS011;2015;48.670;9.060;2023-04-03T14:38:30;4.30;;;4.00;;
4001;SDS011;2015;48.670;9.060;2023-04-03T14:41:02;3.87;;;3.57;;
4001;SDS011;2015;48.670;9.060;2023-04-03T14:43:47;4.37;;;3.50;;
4001;SDS011;2015;48.670;9.060;2023-04-03T14:46:30;4.00;;;3.70;;
4001;SDS011;2015;48.670;9.060;2023-04-03T14:49:26;5.03;;;3.93;;
4001;SDS011;2015;48.670;9.060;2023-04-03T14:52:00;5.80;;;4.40;;
4001;SDS011;2015;48.670;9.060;2023-04-03T14:54:31;3.67;;;3.47;;
4001;SDS011;2015;48.670;9.060;2023-04-03T14:57:08;4.20;;;4.00;;
4001;SDS011;2015;48.670;9.060;2023-04-03T14:59:44;4.47;;;4.17;;
4001;SDS011;2015;48.670;9.060;2023-04-03T15:02:27;5.20;;;4.50;;
4001;SDS011;2015;48.670;9.060;2023-04-03T15:05:08;3.80;;;3.60;;
4001;SDS011;2015;48.670;9.060;2023-04-03T15:07:41;4.90;;;4.50;;
4001;SDS011;2015;48.670;9.060;2023-04-03T15:10:20;7.03;;;4.07;;
4001;SDS011;2015;48.670;9.060;2023-04-03T15:12:54;4.20;;;3.90;;
4001;SDS011;2015;48.670;9.060;2023-04-03T15:15:28;4.23;;;3.97;;
4001;SDS011;2015;48.670;9.060;2023-04-03T15:18:02;4.53;;;4.10;;
4001;SDS011;2015;48.670;9.060;2023-04-03T15:20:34;3.70;;;3.50;;
4001;SDS011;2015;48.670;9.060;2023-04-03T15:23:07;4.07;;;3.50;;
4001;SDS011;2015;48.670;9.060;2023-04-03T15:25:40;5.27;;;4.77;;
4001;SDS011;2015;48.670;9.060;2023-04-03T15:28:18;6.43;;;3.97;;
4001;SDS011;2015;48.670;9.060;2023-04-03T15:30:54;4.53;;;4.33;;
4001;SDS011;2015;48.670;9.060;2023-04-03T15:33:26;6.60;;;4.03;;
4001;SDS011;2015;48.670;9.060;2023-04-03T15:35:58;4.17;;;3.83;;
4001;SDS011;2015;48.670;9.060;2023-04-03T15:38:38;10.03;;;3.90;;
4001;SDS011;2015;48.670;9.060;2023-04-03T15:41:09;4.03;;;3.63;;
4001;SDS011;2015;48.670;9.060;2023-04-03T15:43:44;3.50;;;3.30;;
4001;SDS011;2015;48.670;9.060;2023-04-03T15:46:16;4.90;;;3.70;;
4001;SDS011;2015;48.670;9.060;2023-04-03T15:48:47;13.43;;;4.47;;
4001;SDS011;2015;48.670;9.060;2023-04-03T15:51:20;3.60;;;3.30;;
4001;SDS011;2015;48.670;9.060;2023-04-03T15:53:52;4.13;;;3.73;;
4001;SDS011;2015;48.670;9.060;2023-04-03T15:56:24;4.00;;;3.40;;
4001;SDS011;2015;48.670;9.060;2023-04-03T15:58:56;3.67;;;3.43;;
4001;SDS011;2015;48.670;9.060;2023-04-03T16:01:28;5.27;;;4.00;;
4001;SDS011;2015;48.670;9.060;2023-04-03T16:04:00;5.23;;;4.40;;
4001;SDS011;2015;48.670;9.060;2023-04-03T16:06:32;4.33;;;3.57;;
4001;SDS011;2015;48.670;9.060;2023-04-03T16:09:05;3.97;;;3.67;;
4001;SDS011;2015;48.670;9.060;2023-04-03T16:11:38;3.27;;;3.07;;
4001;SDS011;2015;48.670;9.060;2023-04-03T16:14:11;4.43;;;4.10;;
4001;SDS011;2015;48.670;9.060;2023-04-03T16:16:43;4.53;;;4.13;;
4001;SDS011;2015;48.670;9.060;2023-04-03T16:19:14;4.00;;;3.57;;
4001;SDS011;2015;48.670;9.060;2023-04-03T16:21:46;4.23;;;3.93;;
4001;SDS011;2015;48.670;9.060;2023-04-03T16:24:18;3.30;;;3.03;;
4001;SDS011;2015;48.670;9.060;2023-04-03T16:26:50;3.77;;;3.53;;
4001;SDS011;2015;48.670;9.060;2023-04-03T16:29:24;4.17;;;3.80;;
4001;SDS011;2015;48.670;9.060;2023-04-03T16:31:56;4.97;;;3.70;;
4001;SDS011;2015;48.670;9.060;2023-04-03T16:34:29;3.20;;;3.00;;
4001;SDS011;2015;48.670;9.060;2023-04-03T16:37:04;3.63;;;3.33;;
4001;SDS011;2015;48.670;9.060;2023-04-03T16:39:36;4.07;;;3.87;;
4001;SDS011;2015;48.670;9.060;2023-04-03T16:42:08;4.40;;;3.63;;
4001;SDS011;2015;48.670;9.060;2023-04-03T16:44:40;4.13;;;3.93;;
4001;SDS011;2015;48.670;9.060;2023-04-03T16:47:12;4.78;;;2.97;;
4001;SDS011;2015;48.670;9.060;2023-04-03T16:49:45;3.60;;;3.33;;
4001;SDS011;2015;48.670;9.060;2023-04-03T16:52:18;5.60;;;3.60;;
4001;SDS011;2015;48.670;9.060;2023-04-03T16:54:50;4.43;;;3.53;;
4001;SDS011;2015;48.670;9.060;2023-04-03T16:57:26;3.03;;;2.83;;
4001;SDS011;2015;48.670;9.060;2023-04-03T16:59:58;4.10;;;3.33;;
4001;SDS011;2015;48.670;9.060;2023-04-03T17:02:29;5.57;;;3.37;;
4001;SDS011;2015;48.670;9.060;2023-04-03T17:05:01;7.23;;;3.80;;
4001;SDS011;2015;48.670;9.060;2023-04-03T17:07:33;3.65;;;3.30;;
4001;SDS011;2015;48.670;9.060;2023-04-03T17:10:05;3.20;;;3.00;;
4001;SDS011;2015;48.670;9.060;2023-04-03T17:12:37;3.58;;;3.28;;
4001;SDS011;2015;48.670;9.060;2023-04-03T17:15:09;3.40;;;3.20;;
4001;SDS011;2015;48.670;9.060;2023-04-03T17:17:41;3.40;;;3.20;;
4001;SDS011;2015;48.670;9.060;2023-04-03T17:20:13;3.43;;;3.23;;
4001;SDS011;2015;48.670;9.060;2023-04-03T17:22:45;3.43;;;3.13;;
4001;SDS011;2015;48.670;9.060;2023-04-03T17:25:17;4.20;;;3.00;;
4001;SDS011;2015;48.670;9.060;2023-04-03T17:27:49;3.40;;;3.10;;
4001;SDS011;2015;48.670;9.060;2023-04-03T17:30:21;3.80;;;3.60;;
4001;SDS011;2015;48.670;9.060;2023-04-03T17:32:53;3.77;;;3.40;;
4001;SDS011;2015;48.670;9.060;2023-04-03T17:35:25;4.13;;;3.70;;
4001;SDS011;2015;48.670;9.060;2023-04-03T17:37:56;3.50;;;3.10;;
4001;SDS011;2015;48.670;9.060;2023-04-03T17:40:28;3.27;;;3.07;;
4001;SDS011;2015;48.670;9.060;2023-04-03T17:43:00;3.67;;;3.47;;
4001;SDS011;2015;48.670;9.060;2023-04-03T17:45:32;4.10;;;3.90;;
4001;SDS011;2015;48.670;9.060;2023-04-03T17:48:03;3.60;;;3.30;;
4001;SDS011;2015;48.670;9.060;2023-04-03T17:50:36;3.30;;;3.10;;
4001;SDS011;2015;48.670;9.060;2023-04-03T17:53:08;3.37;;;3.17;;
4001;SDS011;2015;48.670;9.060;2023-04-03T17:55:39;5.10;;;3.87;;
4001;SDS011;2015;48.670;9.060;2023-04-03T17:58:11;4.07;;;3.70;;
4001;SDS011;2015;48.670;9.060;2023-04-03T18:00:43;3.93;;;3.57;;
4001;SDS011;2015;48.670;9.060;2023-04-03T18:03:15;4.23;;;3.23;;
4001;SDS011;2015;48.670;9.060;2023-04-03T18:05:47;5.90;;;4.03;;
4001;SDS011;2015;48.670;9.060;2023-04-03T18:08:20;4.00;;;3.63;;
4001;SDS011;2015;48.670;9.060;2023-04-03T18:10:53;4.07;;;3.67;;
4001;SDS011;2015;48.670;9.060;2023-04-03T18:13:25;6.00;;;3.40;;